Time;durP1;ratioP1;P1;durP2;ratioP2;P2;SDS_P1;SDS_P2;PMS_P1;PMS_P2;Temp;Humidity;BMP_temperature;BMP_pressure;BME280_temperature;BME280_humidity;BME280_pressure;Samples;Min_cycle;Max_cycle;Signal;HPM_P1;HPM_P2
2022/06/29 00:00:43;;;;;;;1.27;0.90;;;;;;;24.89;40.41;101319.72;4977952;28;20024;-65
2022/06/29 00:03:09;;;;;;;1.58;1.08;;;;;;;24.83;40.50;101317.81;4994241;28;20468;-66
2022/06/29 00:05:34;;;;;;;3.10;1.20;;;;;;;24.84;41.05;101322.25;4994224;28;20030;-65
2022/06/29 00:08:00;;;;;;;1.83;1.27;;;;;;;24.78;40.64;101317.56;4994067;28;20030;-65
2022/06/29 00:10:25;;;;;;;2.15;1.30;;;;;;;24.77;40.57;101315.88;4993909;28;20046;-66
2022/06/29 00:12:52;;;;;;;3.72;1.20;;;;;;;24.75;40.77;101319.88;4995300;28;20036;-65
2022/06/29 00:15:18;;;;;;;3.05;1.30;;;;;;;24.72;40.15;101317.56;4994055;28;20429;-65
2022/06/29 00:17:43;;;;;;;1.85;1.10;;;;;;;24.65;40.60;101309.31;4994031;28;20030;-65
2022/06/29 00:20:12;;;;;;;1.75;1.00;;;;;;;24.61;41.22;101318.19;4968769;28;20034;-65
2022/06/29 00:22:39;;;;;;;1.65;0.93;;;;;;;24.54;40.90;101317.34;4975678;28;20440;-66
2022/06/29 00:25:05;;;;;;;2.53;0.90;;;;;;;24.45;40.96;101319.44;4986467;28;20543;-65
2022/06/29 00:27:30;;;;;;;2.92;1.02;;;;;;;24.39;41.44;101313.94;4974929;28;20068;-66
2022/06/29 00:29:56;;;;;;;4.03;1.58;;;;;;;24.31;40.72;101310.34;4958087;28;20062;-66
2022/06/29 00:32:21;;;;;;;2.50;1.15;;;;;;;24.28;41.44;101308.03;4974136;28;20366;-66
2022/06/29 00:34:47;;;;;;;1.58;1.45;;;;;;;24.23;41.26;101304.22;4974782;28;20462;-66
2022/06/29 00:37:13;;;;;;;2.85;0.82;;;;;;;24.21;40.88;101307.13;4977285;28;20019;-65
2022/06/29 00:39:38;;;;;;;2.75;1.08;;;;;;;24.19;41.29;101305.66;4977368;28;20025;-66
2022/06/29 00:42:04;;;;;;;2.60;1.30;;;;;;;24.15;41.89;101305.22;4994693;28;20030;-65
2022/06/29 00:44:29;;;;;;;2.58;1.00;;;;;;;24.11;41.31;101300.38;4994832;28;20037;-65
2022/06/29 00:47:00;;;;;;;2.72;1.38;;;;;;;24.09;41.88;101311.50;4977175;28;20026;-65
2022/06/29 00:49:27;;;;;;;1.42;1.10;;;;;;;24.05;41.05;101306.63;4976960;28;20033;-65
2022/06/29 00:52:14;;;;;;;4.15;1.50;;;;;;;23.99;41.64;101308.31;4993280;28;20030;-66
2022/06/29 00:54:40;;;;;;;1.00;0.95;;;;;;;23.94;41.66;101307.22;4993332;28;20026;-65
2022/06/29 00:57:09;;;;;;;5.72;1.30;;;;;;;23.87;41.31;101304.44;4993199;28;20029;-66
2022/06/29 00:59:43;;;;;;;2.63;1.25;;;;;;;23.81;41.97;101293.50;4978265;28;20458;-66
2022/06/29 01:02:08;;;;;;;2.38;1.20;;;;;;;23.77;42.09;101299.38;4973738;28;20030;-66
2022/06/29 01:04:34;;;;;;;1.52;1.20;;;;;;;23.74;41.70;101294.31;4957571;28;20035;-65
2022/06/29 01:06:59;;;;;;;3.28;1.30;;;;;;;23.73;42.18;101292.59;4973867;28;20049;-66
2022/06/29 01:09:25;;;;;;;3.22;1.17;;;;;;;23.70;42.26;101287.53;4973456;28;20432;-66
2022/06/29 01:11:50;;;;;;;2.05;1.38;;;;;;;23.68;42.33;101283.31;4957507;28;20042;-66
2022/06/29 01:14:16;;;;;;;2.30;1.25;;;;;;;23.66;42.02;101279.97;4957518;28;20060;-65
2022/06/29 01:16:41;;;;;;;1.67;1.58;;;;;;;23.63;42.24;101274.88;4974619;28;20488;-66
2022/06/29 01:19:07;;;;;;;5.38;1.52;;;;;;;23.60;42.64;101281.63;4973507;28;20058;-66
2022/06/29 01:21:35;;;;;;;0.85;0.85;;;;;;;23.58;42.78;101278.25;4973452;28;20365;-66
2022/06/29 01:24:00;;;;;;;4.03;1.35;;;;;;;23.56;43.04;101288.53;4973696;28;20413;-65
2022/06/29 01:26:26;;;;;;;2.80;1.50;;;;;;;23.53;42.44;101280.75;4973432;28;20023;-65
2022/06/29 01:28:51;;;;;;;3.75;1.20;;;;;;;23.53;42.18;101286.22;4957281;28;20082;-66
2022/06/29 01:31:17;;;;;;;1.25;1.15;;;;;;;23.51;42.21;101281.97;4973212;28;20185;-66
2022/06/29 01:33:44;;;;;;;1.88;1.42;;;;;;;23.47;42.86;101287.03;4973342;28;20031;-65
2022/06/29 01:36:11;;;;;;;2.15;1.40;;;;;;;23.46;42.25;101285.31;4973385;28;20023;-66
2022/06/29 01:38:37;;;;;;;2.97;1.20;;;;;;;23.44;42.14;101287.44;4957219;28;20025;-66
2022/06/29 01:41:08;;;;;;;1.83;1.00;;;;;;;23.39;42.17;101278.13;4974460;28;20055;-65
2022/06/29 01:43:34;;;;;;;1.95;1.08;;;;;;;23.35;42.52;101293.22;4973295;28;20019;-65
2022/06/29 01:45:59;;;;;;;3.28;0.88;;;;;;;23.29;42.62;101286.66;4973248;28;20035;-65
2022/06/29 01:48:24;;;;;;;3.60;1.42;;;;;;;23.23;42.57;101283.91;4973129;28;20058;-65
2022/06/29 01:50:50;;;;;;;5.43;2.53;;;;;;;23.24;42.86;101286.44;4973111;28;20113;-66
2022/06/29 01:53:16;;;;;;;4.10;1.55;;;;;;;23.20;42.50;101285.13;4973179;28;20034;-65
2022/06/29 01:55:45;;;;;;;7.55;1.33;;;;;;;23.20;43.48;101285.13;4957046;28;20026;-65
2022/06/29 01:58:11;;;;;;;13.00;1.70;;;;;;;23.16;43.50;101283.84;4973192;28;20043;-65
2022/06/29 02:00:36;;;;;;;2.65;1.30;;;;;;;23.12;42.52;101277.09;4973090;28;20444;-65
2022/06/29 02:03:02;;;;;;;3.90;1.45;;;;;;;23.12;42.68;101275.19;4973056;28;20035;-66
2022/06/29 02:05:27;;;;;;;1.48;1.10;;;;;;;23.11;42.55;101269.94;4956975;28;20042;-65
2022/06/29 02:07:52;;;;;;;1.83;1.25;;;;;;;23.09;42.67;101266.53;4972913;28;20026;-65
2022/06/29 02:10:18;;;;;;;6.68;1.50;;;;;;;23.02;42.58;101255.59;4956685;28;20055;-65
2022/06/29 02:12:43;;;;;;;4.35;1.50;;;;;;;23.04;42.89;101269.03;4972986;28;20026;-65
2022/06/29 02:15:10;;;;;;;1.10;1.00;;;;;;;23.01;42.85;101266.69;4974334;28;20047;-65
2022/06/29 02:17:35;;;;;;;4.90;1.00;;;;;;;23.00;43.71;101262.31;4989063;28;20031;-65
2022/06/29 02:20:01;;;;;;;3.15;1.30;;;;;;;22.96;42.67;101255.53;4974115;28;20027;-65
2022/06/29 02:22:26;;;;;;;1.23;1.13;;;;;;;22.91;43.37;101250.66;4974057;28;20034;-65
2022/06/29 02:24:52;;;;;;;4.38;1.60;;;;;;;22.90;42.82;101245.38;4956693;28;20477;-65
2022/06/29 02:27:17;;;;;;;6.28;1.90;;;;;;;22.87;43.59;101243.06;4956704;28;20023;-65
2022/06/29 02:29:42;;;;;;;3.92;1.48;;;;;;;22.84;43.07;101246.19;4956642;28;20440;-65
2022/06/29 02:34:51;;;;;;;2.03;1.40;;;;;;;22.75;44.09;101242.78;4973004;28;20037;-66
2022/06/29 02:37:17;;;;;;;4.93;1.40;;;;;;;22.75;44.05;101241.94;4972868;28;20451;-66
2022/06/29 02:39:43;;;;;;;6.32;1.60;;;;;;;22.73;43.07;101244.00;4956493;28;20028;-65
2022/06/29 02:42:10;;;;;;;4.43;1.48;;;;;;;22.69;43.92;101249.03;4972743;28;20041;-65
2022/06/29 02:44:36;;;;;;;4.22;1.30;;;;;;;22.67;43.69;101244.81;4975208;28;20038;-65
2022/06/29 02:47:01;;;;;;;1.63;1.52;;;;;;;22.65;43.27;101241.41;4977370;28;20405;-65
2022/06/29 02:49:26;;;;;;;3.35;1.42;;;;;;;22.64;43.86;101247.94;4976101;28;20031;-65
2022/06/29 02:51:52;;;;;;;3.42;1.58;;;;;;;22.59;43.21;101243.88;4977254;28;20027;-65
2022/06/29 02:54:17;;;;;;;2.25;1.55;;;;;;;22.58;43.95;101244.06;4976082;28;20026;-66
2022/06/29 02:56:43;;;;;;;4.93;1.27;;;;;;;22.54;44.23;101240.88;4976185;28;20077;-66
2022/06/29 02:59:08;;;;;;;3.28;1.90;;;;;;;22.49;43.40;101237.06;4975999;28;20022;-66
2022/06/29 03:01:33;;;;;;;1.95;1.42;;;;;;;22.45;44.18;101236.59;4977103;28;20047;-66
2022/06/29 03:03:59;;;;;;;5.65;1.70;;;;;;;22.41;43.87;101237.19;4977145;28;20027;-65
2022/06/29 03:06:24;;;;;;;2.67;1.45;;;;;;;22.35;43.87;101227.91;4975977;28;20381;-65
2022/06/29 03:08:49;;;;;;;2.83;1.60;;;;;;;22.34;44.03;101219.91;4959649;28;20034;-65
2022/06/29 03:11:15;;;;;;;3.67;1.33;;;;;;;22.32;44.06;101225.56;4976817;28;20042;-65
2022/06/29 03:13:40;;;;;;;4.03;1.17;;;;;;;22.28;44.04;101224.25;4959595;28;20515;-65
2022/06/29 03:16:05;;;;;;;1.33;1.23;;;;;;;22.30;44.22;101222.19;4975685;28;20023;-65
2022/06/29 03:18:31;;;;;;;2.03;1.30;;;;;;;22.25;43.91;101213.72;4975662;28;20031;-65
2022/06/29 03:20:56;;;;;;;1.80;1.67;;;;;;;22.23;43.73;101215.81;4977125;28;20026;-65
2022/06/29 03:23:22;;;;;;;1.83;1.52;;;;;;;22.19;44.04;101209.06;4975590;28;20154;-66
2022/06/29 03:25:47;;;;;;;2.97;1.70;;;;;;;22.18;44.87;101210.09;4976728;28;20050;-65
2022/06/29 03:28:12;;;;;;;4.15;1.45;;;;;;;22.16;44.29;101209.47;4975588;28;20118;-66
2022/06/29 03:30:38;;;;;;;2.70;1.98;;;;;;;22.17;44.66;101215.75;4975420;28;20030;-65
2022/06/29 03:33:03;;;;;;;3.05;2.20;;;;;;;22.15;43.86;101213.22;4975487;28;20030;-65
2022/06/29 03:35:28;;;;;;;2.17;1.45;;;;;;;22.11;44.28;101209.19;4975422;28;20023;-65
2022/06/29 03:37:54;;;;;;;2.03;1.58;;;;;;;22.13;44.42;101218.03;4975329;28;20105;-65
2022/06/29 03:40:19;;;;;;;3.03;1.52;;;;;;;22.10;44.74;101215.69;4975300;28;20487;-65
2022/06/29 03:42:45;;;;;;;2.50;1.63;;;;;;;22.11;44.12;101219.28;4975231;28;20388;-65
2022/06/29 03:45:10;;;;;;;2.47;1.83;;;;;;;22.09;44.61;101211.25;4959303;28;20240;-65
2022/06/29 03:47:35;;;;;;;4.22;1.45;;;;;;;22.08;44.39;101212.31;4975173;28;20037;-65
2022/06/29 03:50:01;;;;;;;7.65;1.80;;;;;;;22.07;44.47;101210.63;4974957;28;20105;-66
2022/06/29 03:52:26;;;;;;;3.47;1.42;;;;;;;22.08;44.63;101216.94;4991357;28;20034;-66
2022/06/29 03:54:52;;;;;;;2.33;1.70;;;;;;;22.07;45.06;101217.97;4973811;28;20094;-66
2022/06/29 03:57:17;;;;;;;2.97;1.70;;;;;;;22.06;44.86;101208.91;4974918;28;20022;-65
2022/06/29 03:59:43;;;;;;;3.10;1.40;;;;;;;22.05;44.73;101212.72;4958767;28;20463;-65
2022/06/29 04:02:08;;;;;;;7.68;1.80;;;;;;;22.07;44.92;101201.59;4958705;28;20408;-65
2022/06/29 04:04:34;;;;;;;5.32;1.95;;;;;;;22.05;44.89;101197.16;4974802;28;20113;-65
2022/06/29 04:06:59;;;;;;;4.43;1.83;;;;;;;22.08;44.75;101206.88;4975037;28;20480;-65
2022/06/29 04:09:24;;;;;;;2.25;1.75;;;;;;;22.09;44.77;101208.53;4990792;28;20034;-65
2022/06/29 04:11:52;;;;;;;5.93;1.98;;;;;;;22.10;45.05;101202.06;4975913;28;20026;-64
2022/06/29 04:14:26;;;;;;;3.90;1.50;;;;;;;22.10;45.10;101201.19;4974697;28;20062;-64
2022/06/29 04:16:52;;;;;;;4.10;1.50;;;;;;;22.13;45.19;101201.66;4974693;28;20113;-65
2022/06/29 04:19:18;;;;;;;2.63;1.70;;;;;;;22.18;44.77;101199.19;4958333;28;20476;-66
2022/06/29 04:21:43;;;;;;;3.55;1.80;;;;;;;22.23;44.73;101198.59;4974525;28;20029;-65
2022/06/29 04:24:09;;;;;;;4.75;1.95;;;;;;;22.30;45.02;101194.91;4974436;28;20027;-65
2022/06/29 04:26:34;;;;;;;4.43;1.92;;;;;;;22.36;44.44;101196.81;4974473;28;20027;-65
2022/06/29 04:28:59;;;;;;;6.60;2.03;;;;;;;22.42;45.18;101192.44;4974391;28;20019;-66
2022/06/29 04:31:25;;;;;;;3.53;1.95;;;;;;;22.47;45.34;101190.81;4958114;28;20026;-65
2022/06/29 04:33:50;;;;;;;2.72;1.80;;;;;;;22.56;45.01;101192.38;4974317;28;20034;-65
2022/06/29 04:36:16;;;;;;;3.35;2.30;;;;;;;22.67;44.70;101195.66;4958160;28;20400;-65
2022/06/29 04:38:41;;;;;;;5.15;2.30;;;;;;;22.78;44.84;101184.16;4974272;28;20396;-65
2022/06/29 04:41:07;;;;;;;7.35;2.25;;;;;;;22.89;45.11;101184.44;4974086;28;20022;-66
2022/06/29 04:43:32;;;;;;;2.92;2.10;;;;;;;22.98;44.23;101176.91;4957908;28;20125;-66
2022/06/29 04:48:43;;;;;;;2.22;1.90;;;;;;;23.07;44.87;101187.50;4974071;28;20085;-66
2022/06/29 04:51:08;;;;;;;6.93;2.22;;;;;;;23.10;44.88;101181.63;4957675;28;20504;-65
2022/06/29 04:53:33;;;;;;;4.35;2.00;;;;;;;23.14;45.54;101185.63;4990127;28;20031;-65
2022/06/29 04:55:59;;;;;;;2.15;2.00;;;;;;;23.12;44.89;101173.22;4973752;28;20453;-65
2022/06/29 04:58:24;;;;;;;2.90;1.70;;;;;;;23.15;45.41;101176.41;4957656;28;20026;-65
2022/06/29 05:00:50;;;;;;;4.30;1.77;;;;;;;23.19;45.26;101179.56;4973767;28;20026;-65
2022/06/29 05:03:15;;;;;;;2.47;1.63;;;;;;;23.20;45.24;101176.63;4973672;28;20089;-65
2022/06/29 05:05:40;;;;;;;3.53;1.65;;;;;;;23.22;44.75;101181.91;4973573;28;20030;-65
2022/06/29 05:08:06;;;;;;;4.18;1.60;;;;;;;23.26;44.90;101182.31;4957411;28;20033;-66
2022/06/29 05:10:31;;;;;;;5.20;1.77;;;;;;;23.45;44.95;101176.16;4973459;28;20047;-65
2022/06/29 05:12:57;;;;;;;2.13;1.88;;;;;;;23.64;44.66;101186.31;4973641;28;20023;-65
2022/06/29 05:15:22;;;;;;;3.78;2.55;;;;;;;23.87;44.77;101186.78;4973596;28;20388;-65
2022/06/29 05:17:48;;;;;;;4.78;1.95;;;;;;;23.99;45.04;101184.28;4973505;28;20054;-65
2022/06/29 05:20:14;;;;;;;1.42;1.30;;;;;;;24.07;44.12;101189.56;4973518;28;20098;-65
2022/06/29 05:22:39;;;;;;;1.90;1.60;;;;;;;24.18;44.42;101180.75;4973472;28;20019;-66
2022/06/29 05:25:06;;;;;;;5.30;1.75;;;;;;;24.25;44.57;101181.63;4973400;28;20377;-66
2022/06/29 05:27:32;;;;;;;4.60;2.13;;;;;;;24.31;44.36;101186.25;4973374;28;20049;-66
2022/06/29 05:29:58;;;;;;;3.45;2.10;;;;;;;24.34;44.60;101180.38;4974528;28;20023;-65
2022/06/29 05:32:23;;;;;;;7.18;2.95;;;;;;;24.42;44.39;101182.03;4973292;28;20492;-66
2022/06/29 05:34:49;;;;;;;2.67;1.52;;;;;;;24.48;44.85;101182.06;4973413;28;20108;-66
2022/06/29 05:37:14;;;;;;;3.47;1.70;;;;;;;24.55;44.67;101176.53;4974503;28;20464;-66
2022/06/29 05:39:39;;;;;;;2.95;1.83;;;;;;;24.68;44.07;101184.78;4973224;28;20050;-66
2022/06/29 05:42:05;;;;;;;4.55;1.80;;;;;;;24.87;43.92;101182.00;4957110;28;20058;-66
2022/06/29 05:44:30;;;;;;;3.05;1.77;;;;;;;24.93;43.97;101180.31;4973219;28;20093;-66
2022/06/29 05:46:56;;;;;;;2.42;2.13;;;;;;;25.01;44.48;101185.59;4956978;28;20027;-66
2022/06/29 05:49:21;;;;;;;3.45;2.05;;;;;;;25.15;44.71;101186.38;4956994;28;20571;-66
2022/06/29 05:51:46;;;;;;;2.75;2.00;;;;;;;25.22;44.30;101189.94;4973175;28;20049;-66
2022/06/29 05:54:12;;;;;;;5.00;2.33;;;;;;;25.24;43.84;101182.34;4973188;28;20392;-66
2022/06/29 05:56:37;;;;;;;3.08;2.00;;;;;;;25.30;44.57;101181.47;4973094;28;20031;-66
2022/06/29 05:59:02;;;;;;;3.00;1.90;;;;;;;25.33;43.96;101181.03;4957002;28;20027;-66
2022/06/29 06:01:28;;;;;;;5.65;1.90;;;;;;;25.36;44.03;101180.59;4973111;28;20069;-66
2022/06/29 06:03:53;;;;;;;5.35;2.95;;;;;;;25.40;44.05;101176.38;4956873;28;20484;-65
2022/06/29 06:06:18;;;;;;;2.70;2.08;;;;;;;25.46;43.99;101175.53;4973205;28;20093;-67
2022/06/29 06:08:44;;;;;;;2.78;1.95;;;;;;;25.54;43.65;101171.72;4973024;28;20037;-67
2022/06/29 06:11:09;;;;;;;5.53;1.70;;;;;;;25.67;43.97;101177.97;4956531;28;20069;-66
2022/06/29 06:13:34;;;;;;;4.82;2.13;;;;;;;25.71;43.85;101183.88;4956825;28;20408;-66
2022/06/29 06:16:00;;;;;;;3.85;1.90;;;;;;;25.84;43.54;101172.81;4989059;28;20034;-67
2022/06/29 06:18:25;;;;;;;3.08;1.70;;;;;;;26.04;43.36;101173.53;4973814;28;20030;-66
2022/06/29 06:20:50;;;;;;;3.33;2.25;;;;;;;26.40;43.31;101172.84;4976659;28;20038;-66
2022/06/29 06:23:16;;;;;;;5.72;2.00;;;;;;;26.42;43.15;101170.69;4992873;28;20026;-66
2022/06/29 06:25:41;;;;;;;2.90;1.60;;;;;;;26.41;43.27;101169.03;4976635;28;20034;-66
2022/06/29 06:28:07;;;;;;;3.15;1.77;;;;;;;26.44;43.39;101174.06;4976649;28;20027;-66
2022/06/29 06:30:32;;;;;;;4.63;1.95;;;;;;;26.48;43.36;101169.81;4983394;28;20030;-66
2022/06/29 06:32:58;;;;;;;5.45;1.58;;;;;;;26.49;42.90;101169.56;4995342;28;20372;-67
2022/06/29 06:35:23;;;;;;;3.75;1.83;;;;;;;26.55;42.97;101170.56;4979606;28;20056;-67
2022/06/29 06:37:49;;;;;;;1.35;1.25;;;;;;;26.61;42.59;101166.94;4995923;28;20107;-66
2022/06/29 06:42:59;;;;;;;1.95;1.40;;;;;;;27.48;41.70;101161.13;4996059;28;20094;-67
2022/06/29 06:45:25;;;;;;;2.53;1.30;;;;;;;27.95;40.62;101162.16;4997084;28;20030;-66
2022/06/29 06:47:50;;;;;;;3.30;1.40;;;;;;;28.35;40.79;101167.06;4966373;28;20073;-66
2022/06/29 06:50:16;;;;;;;2.75;1.85;;;;;;;28.77;39.85;101155.75;4975969;28;20118;-67
2022/06/29 06:52:41;;;;;;;3.13;1.60;;;;;;;29.24;39.84;101161.22;4976230;28;20062;-66
2022/06/29 06:55:07;;;;;;;3.55;1.20;;;;;;;29.71;38.77;101151.69;4977346;28;20077;-66
2022/06/29 06:57:32;;;;;;;2.42;1.50;;;;;;;30.12;38.91;101153.31;4960193;28;20384;-66
2022/06/29 06:59:58;;;;;;;2.90;1.38;;;;;;;30.51;38.20;101148.75;4976025;28;20036;-66
2022/06/29 07:02:23;;;;;;;2.95;1.13;;;;;;;30.91;37.81;101154.03;4976110;28;20034;-66
2022/06/29 07:04:48;;;;;;;3.58;1.10;;;;;;;31.21;37.44;101146.19;4975878;28;20034;-66
2022/06/29 07:07:14;;;;;;;2.92;1.15;;;;;;;31.56;37.08;101149.41;4976140;28;20354;-66
2022/06/29 07:09:40;;;;;;;2.20;1.00;;;;;;;31.56;37.17;101154.94;4970961;28;20034;-66
2022/06/29 07:12:05;;;;;;;1.92;1.10;;;;;;;31.76;36.91;101147.94;4995336;28;20034;-66
2022/06/29 07:14:31;;;;;;;4.38;0.98;;;;;;;32.00;36.24;101146.50;4996649;28;20030;-67
2022/06/29 07:16:57;;;;;;;3.88;0.70;;;;;;;32.12;36.64;101144.44;4996398;28;20476;-67
2022/06/29 07:19:22;;;;;;;1.33;1.20;;;;;;;32.34;36.16;101144.34;4996339;28;20031;-66
2022/06/29 07:21:48;;;;;;;2.97;0.70;;;;;;;32.51;35.19;101147.81;4979059;28;20033;-66
2022/06/29 07:24:13;;;;;;;4.25;1.05;;;;;;;32.52;35.44;101142.03;4996285;28;20026;-66
2022/06/29 07:26:38;;;;;;;0.98;0.80;;;;;;;32.67;34.58;101146.84;4978779;28;20033;-67
2022/06/29 07:29:04;;;;;;;3.15;0.85;;;;;;;32.74;34.95;101144.69;4994767;28;20026;-67
2022/06/29 07:31:29;;;;;;;2.70;0.80;;;;;;;33.00;34.45;101148.47;4978432;28;20077;-67
2022/06/29 07:33:54;;;;;;;1.17;0.82;;;;;;;33.24;33.82;101149.72;4994912;28;20037;-66
2022/06/29 07:36:20;;;;;;;1.10;0.90;;;;;;;33.45;34.58;101145.06;4994964;28;20480;-67
2022/06/29 07:38:45;;;;;;;3.63;1.15;;;;;;;33.42;34.72;101146.44;4995962;28;20027;-67
2022/06/29 07:41:11;;;;;;;4.80;1.35;;;;;;;33.21;34.46;101144.69;4995974;28;20468;-67
2022/06/29 07:43:37;;;;;;;4.25;0.82;;;;;;;33.50;33.99;101137.59;4994773;28;20060;-67
2022/06/29 07:46:02;;;;;;;3.80;1.15;;;;;;;33.62;33.35;101146.53;4994712;28;20413;-68
2022/06/29 07:48:28;;;;;;;2.10;0.90;;;;;;;33.89;34.04;101137.97;4994562;28;20424;-67
2022/06/29 07:50:53;;;;;;;2.28;1.23;;;;;;;33.94;33.82;101144.38;4989687;28;20027;-67
2022/06/29 07:53:19;;;;;;;1.98;1.35;;;;;;;33.97;33.32;101148.56;4975081;28;20038;-67
2022/06/29 07:55:45;;;;;;;0.93;0.60;;;;;;;34.10;34.00;101152.75;4958888;28;20023;-68
2022/06/29 07:58:16;;;;;;;2.92;0.80;;;;;;;34.10;32.44;101141.63;4958895;28;20031;-68
2022/06/29 08:00:42;;;;;;;4.97;1.05;;;;;;;34.07;33.42;101147.72;4974898;28;20403;-67
2022/06/29 08:03:08;;;;;;;2.25;1.58;;;;;;;33.90;33.21;101143.25;4974862;28;20097;-67
2022/06/29 08:05:36;;;;;;;1.95;0.95;;;;;;;33.66;32.77;101136.53;4958722;28;20069;-67
2022/06/29 08:08:02;;;;;;;1.88;0.70;;;;;;;33.52;33.69;101140.91;4958661;28;20511;-68
2022/06/29 08:10:28;;;;;;;3.20;1.05;;;;;;;33.37;33.65;101143.63;4958432;28;20518;-68
2022/06/29 08:12:54;;;;;;;1.77;0.98;;;;;;;33.23;33.39;101137.75;4974757;28;20033;-67
2022/06/29 08:15:19;;;;;;;7.60;0.95;;;;;;;33.10;33.30;101146.59;4990939;28;20077;-67
2022/06/29 08:17:45;;;;;;;1.95;0.70;;;;;;;32.97;33.65;101149.00;4958471;28;20504;-67
2022/06/29 08:20:11;;;;;;;2.80;0.57;;;;;;;32.87;32.92;101144.22;4958456;28;20408;-67
2022/06/29 08:22:36;;;;;;;1.27;0.80;;;;;;;32.84;32.57;101133.63;4974527;28;20026;-67
2022/06/29 08:25:02;;;;;;;2.45;0.90;;;;;;;32.86;33.59;101142.53;4974452;28;20113;-68
2022/06/29 08:27:27;;;;;;;5.05;1.25;;;;;;;32.87;33.10;101138.66;4958365;28;20477;-67
2022/06/29 08:29:53;;;;;;;1.13;0.80;;;;;;;32.93;33.24;101133.97;4974305;28;20022;-67
2022/06/29 08:32:18;;;;;;;2.80;0.88;;;;;;;33.03;32.62;101137.63;4975600;28;20035;-67
2022/06/29 08:34:44;;;;;;;2.15;0.80;;;;;;;33.16;33.11;101134.41;4974303;28;20388;-67
2022/06/29 08:37:09;;;;;;;16.10;2.05;;;;;;;33.39;33.36;101133.09;4974218;28;20453;-68
2022/06/29 08:39:34;;;;;;;4.35;1.25;;;;;;;33.59;32.67;101135.97;4975436;28;20034;-68
2022/06/29 08:42:04;;;;;;;1.30;1.10;;;;;;;33.75;33.52;101132.09;4957527;28;20054;-67
2022/06/29 08:44:34;;;;;;;9.50;1.10;;;;;;;33.97;33.44;101138.28;4958039;28;20109;-68
2022/06/29 08:47:07;;;;;;;3.28;1.20;;;;;;;34.04;33.54;101137.97;4990369;28;20032;-68
2022/06/29 08:49:34;;;;;;;1.85;0.90;;;;;;;34.07;32.30;101139.38;4983950;28;20026;-68
2022/06/29 08:52:01;;;;;;;3.25;1.63;;;;;;;34.04;33.37;101134.34;4993418;28;20026;-68
2022/06/29 08:54:27;;;;;;;5.53;1.90;;;;;;;34.02;33.06;101131.03;4993368;28;20029;-68
2022/06/29 08:56:57;;;;;;;1.77;0.90;;;;;;;33.95;33.10;101129.34;4994445;28;20476;-67
2022/06/29 08:59:23;;;;;;;1.10;0.80;;;;;;;33.90;33.44;101143.25;4993372;28;20081;-68
2022/06/29 09:01:52;;;;;;;3.72;0.98;;;;;;;33.79;32.91;101130.44;4993283;28;20435;-68
2022/06/29 09:04:18;;;;;;;3.15;1.45;;;;;;;33.72;33.13;101138.22;4993252;28;20388;-67
2022/06/29 09:06:45;;;;;;;1.55;1.08;;;;;;;33.65;33.93;101137.66;4993428;28;20038;-68
2022/06/29 09:09:11;;;;;;;2.50;0.90;;;;;;;33.56;33.90;101142.03;4976986;28;20125;-68
2022/06/29 09:11:41;;;;;;;1.65;1.17;;;;;;;33.46;33.64;101130.06;4992922;28;20121;-67
2022/06/29 09:14:11;;;;;;;5.40;1.80;;;;;;;33.33;34.41;101140.56;4994210;28;20056;-68
2022/06/29 09:16:49;;;;;;;1.35;1.05;;;;;;;33.26;34.33;101144.72;4976824;28;20057;-68
2022/06/29 09:19:17;;;;;;;1.63;1.00;;;;;;;33.15;34.45;101140.22;4992936;28;20065;-67
2022/06/29 09:21:50;;;;;;;2.95;1.00;;;;;;;33.12;33.72;101140.75;4976698;28;20022;-68
2022/06/29 09:24:16;;;;;;;3.45;1.20;;;;;;;33.09;34.15;101147.69;4976708;28;20022;-68
2022/06/29 09:26:42;;;;;;;1.77;1.33;;;;;;;33.08;34.14;101142.41;4994121;28;20037;-68
2022/06/29 09:29:22;;;;;;;3.58;1.50;;;;;;;33.10;34.23;101137.41;4976651;28;20022;-68
2022/06/29 09:32:04;;;;;;;4.85;1.10;;;;;;;33.19;35.07;101141.34;4992805;28;20026;-68
2022/06/29 09:34:30;;;;;;;5.78;1.58;;;;;;;33.19;34.72;101141.34;4993921;28;20097;-68
2022/06/29 09:36:56;;;;;;;3.15;1.52;;;;;;;33.22;34.85;101140.81;4992867;28;20122;-68
2022/06/29 09:39:41;;;;;;;1.45;1.23;;;;;;;33.33;35.03;101150.88;4992867;28;20683;-68
2022/06/29 09:42:12;;;;;;;5.20;1.40;;;;;;;33.86;33.60;101141.31;4993924;28;20396;-67
2022/06/29 09:44:38;;;;;;;1.95;1.27;;;;;;;34.37;33.79;101142.19;4992779;28;20034;-68
2022/06/29 09:47:08;;;;;;;1.50;1.15;;;;;;;34.85;33.14;101136.03;4992669;28;20026;-68
2022/06/29 09:49:36;;;;;;;1.80;1.33;;;;;;;35.29;32.81;101130.59;4992411;28;20034;-68
2022/06/29 09:52:03;;;;;;;2.00;1.00;;;;;;;35.75;32.92;101139.56;4992653;28;20396;-68
2022/06/29 09:54:32;;;;;;;5.40;1.60;;;;;;;36.11;32.53;101132.66;4995356;28;20033;-67
2022/06/29 09:56:57;;;;;;;2.03;0.90;;;;;;;36.48;31.50;101136.78;4980436;28;20033;-67
2022/06/29 10:02:34;;;;;;;5.75;1.38;;;;;;;36.87;31.32;101134.72;4996714;28;20030;-67
2022/06/29 10:02:34;;;;;;;2.15;1.00;;;;;;;37.36;31.34;101136.41;4996666;28;20030;-67
2022/06/29 10:05:07;;;;;;;2.50;1.20;;;;;;;37.83;30.42;101133.53;4996552;28;20026;-68
2022/06/29 10:07:35;;;;;;;5.85;1.00;;;;;;;38.14;30.19;101129.09;4996457;28;20034;-68
2022/06/29 10:10:03;;;;;;;24.50;23.10;;;;;;;38.43;29.56;101121.34;4996230;28;20381;-68
2022/06/29 10:15:30;;;;;;;9.55;9.07;;;;;;;40.27;28.72;101117.94;4997654;28;20041;-68
2022/06/29 10:18:01;;;;;;;2.58;1.33;;;;;;;41.44;27.32;101119.16;4996360;28;20030;-68
2022/06/29 10:20:45;;;;;;;2.50;1.23;;;;;;;42.61;25.93;101105.69;4996238;28;20029;-67
2022/06/29 10:23:49;;;;;;;3.92;1.25;;;;;;;42.71;25.93;101108.16;4996241;28;20084;-68
2022/06/29 10:29:07;;;;;;;3.15;1.05;;;;;;;42.08;26.00;101105.28;4997630;28;20085;-68
2022/06/29 10:31:54;;;;;;;10.32;5.57;;;;;;;41.93;25.68;101105.81;4995887;28;20037;-68
2022/06/29 10:34:28;;;;;;;1.48;1.38;;;;;;;41.87;25.71;101102.34;4997061;28;20054;-68
2022/06/29 10:37:16;;;;;;;4.05;1.30;;;;;;;41.89;25.44;101093.53;4997188;28;20026;-68
2022/06/29 10:39:41;;;;;;;1.65;1.30;;;;;;;42.01;25.16;101090.91;4997069;28;20022;-68
2022/06/29 10:44:54;;;;;;;2.85;2.00;;;;;;;42.36;24.76;101086.84;4997085;28;20311;-68
2022/06/29 10:47:22;;;;;;;2.53;1.13;;;;;;;42.50;24.19;101081.84;4997012;28;20027;-68
2022/06/29 10:49:47;;;;;;;9.90;3.70;;;;;;;42.62;24.22;101084.81;4995508;28;20503;-69
2022/06/29 10:52:13;;;;;;;1.92;1.00;;;;;;;42.74;23.86;101086.94;4995682;28;20105;-68
2022/06/29 10:54:39;;;;;;;2.05;1.95;;;;;;;42.97;23.65;101082.66;4995645;28;20535;-68
2022/06/29 10:57:04;;;;;;;1.50;1.38;;;;;;;43.18;23.03;101075.09;4995679;28;20038;-68
2022/06/29 10:59:34;;;;;;;1.00;1.00;;;;;;;43.42;22.70;101074.44;4979338;28;20463;-68
2022/06/29 11:02:12;;;;;;;7.88;0.98;;;;;;;43.61;21.66;101060.66;4979299;28;20034;-69
2022/06/29 11:04:38;;;;;;;1.13;0.90;;;;;;;43.83;22.42;101062.34;4994819;28;20088;-68
2022/06/29 11:12:51;;;;;;;0.73;0.73;;;;;;;44.31;21.09;101056.03;4995764;28;20041;-69
2022/06/29 11:15:39;;;;;;;0.50;0.50;;;;;;;43.98;21.61;101056.84;4979002;28;20026;-68
2022/06/29 11:18:05;;;;;;;0.98;0.85;;;;;;;44.03;21.30;101056.63;4995267;28;20022;-68
2022/06/29 11:20:30;;;;;;;3.92;0.95;;;;;;;44.05;20.86;101047.81;4978890;28;20023;-68
2022/06/29 11:22:56;;;;;;;2.08;0.90;;;;;;;44.07;21.27;101045.47;4996361;28;20480;-68
2022/06/29 11:25:22;;;;;;;0.93;0.80;;;;;;;44.24;21.26;101044.47;4978901;28;20491;-68
2022/06/29 11:27:48;;;;;;;2.60;0.63;;;;;;;44.15;21.17;101041.75;4996223;28;20476;-69
2022/06/29 11:30:20;;;;;;;0.52;0.35;;;;;;;44.29;20.97;101042.25;4994820;28;20174;-68
2022/06/29 11:32:47;;;;;;;0.95;0.90;;;;;;;44.40;20.96;101042.59;4996116;28;20081;-68
2022/06/29 11:35:15;;;;;;;0.57;0.55;;;;;;;44.47;20.80;101040.88;4994904;28;20034;-68
2022/06/29 11:37:54;;;;;;;0.65;0.50;;;;;;;44.60;20.48;101038.91;4978683;28;20160;-68
2022/06/29 11:40:28;;;;;;;0.90;0.57;;;;;;;44.68;20.57;101031.47;4978530;28;20023;-68
2022/06/29 11:43:05;;;;;;;2.03;0.80;;;;;;;44.69;19.74;101033.13;4978332;28;20442;-68
2022/06/29 11:45:47;;;;;;;2.35;0.65;;;;;;;44.65;20.15;101037.81;4994717;28;20033;-69